Portland, Oregon
Traffic Map
Current Weather Conditions
Portland, Oregon
Overcast
Overcast
52°
Feels Like: 52°
Wind Chill: 52° Ceiling: 11000
Heat Index: 52° Visibility: 10mi
Dew Point: 45° Wind: 3mph
Humidity: 77% Direction: 30° (NNE)
Pressure: 30.34in Gusts: 0mph
Raw Report DataKPDX 290653Z 03003KT 10SM OVC110 11/07 A3034 RMK AO2 SLP274 T01110072
Traffic Incident Summary
Active as of:
Severity:
Category:
InformationThere was an issue retrieving the traffic information for this location. Please try a different location or try again shortly.
Advertisements
Track Severe Weather on mobile